Time;durP1;ratioP1;P1;durP2;ratioP2;P2;SDS_P1;SDS_P2;PMS_P1;PMS_P2;Temp;Humidity;BMP_temperature;BMP_pressure;BME280_temperature;BME280_humidity;BME280_pressure;Samples;Min_cycle;Max_cycle;Signal;HPM_P1;HPM_P2
2023/06/06 00:00:41;;;;;;;3.65;2.08;;;19.10;99.90;;;;;;5017511;28;20205;-73
2023/06/06 00:03:06;;;;;;;4.13;2.17;;;19.10;99.90;;;;;;5014243;28;20200;-74
2023/06/06 00:05:33;;;;;;;3.35;2.00;;;19.10;99.90;;;;;;5013909;28;20200;-75
2023/06/06 00:07:59;;;;;;;3.25;1.90;;;19.10;99.90;;;;;;4990909;28;20214;-75
2023/06/06 00:10:25;;;;;;;3.13;2.40;;;19.10;99.90;;;;;;5014034;28;20292;-74
2023/06/06 00:12:52;;;;;;;6.78;2.28;;;19.00;99.90;;;;;;4997097;28;20211;-74
2023/06/06 00:15:19;;;;;;;5.70;2.58;;;18.90;99.90;;;;;;5008652;28;20206;-73
2023/06/06 00:17:48;;;;;;;3.00;2.15;;;18.90;99.90;;;;;;4994962;28;20287;-74
2023/06/06 00:20:14;;;;;;;2.85;2.00;;;18.90;99.90;;;;;;5015125;28;20218;-75
2023/06/06 00:22:40;;;;;;;2.30;1.83;;;18.80;99.90;;;;;;5015714;28;20654;-73
2023/06/06 00:25:07;;;;;;;3.45;2.15;;;18.80;99.90;;;;;;5014255;28;20201;-75
2023/06/06 00:27:33;;;;;;;2.55;1.95;;;18.70;99.90;;;;;;4999777;28;20255;-74
2023/06/06 00:29:59;;;;;;;4.88;1.98;;;18.60;99.90;;;;;;5015440;28;21311;-75
2023/06/06 00:32:26;;;;;;;3.45;2.08;;;18.70;99.90;;;;;;5002341;28;20549;-74
2023/06/06 00:34:52;;;;;;;3.30;1.95;;;18.70;99.90;;;;;;5016737;28;20208;-74
2023/06/06 00:37:18;;;;;;;2.55;2.20;;;18.70;99.90;;;;;;5020431;28;20574;-72
2023/06/06 00:39:43;;;;;;;2.92;1.55;;;18.60;99.90;;;;;;4999600;28;20291;-74
2023/06/06 00:42:09;;;;;;;3.72;2.30;;;18.50;99.90;;;;;;5021881;28;20193;-73
2023/06/06 00:44:34;;;;;;;3.53;2.10;;;18.50;99.90;;;;;;5013644;28;20655;-74
2023/06/06 00:47:02;;;;;;;7.57;2.15;;;18.50;99.90;;;;;;5008737;28;20216;-74
2023/06/06 00:49:27;;;;;;;4.18;2.15;;;18.50;99.90;;;;;;5013739;28;20251;-73
2023/06/06 00:51:54;;;;;;;4.45;2.08;;;18.40;99.90;;;;;;5011109;28;20232;-73
2023/06/06 00:54:20;;;;;;;4.25;2.33;;;18.40;99.90;;;;;;4995955;28;20417;-73
2023/06/06 00:56:49;;;;;;;2.80;1.92;;;18.40;99.90;;;;;;5016405;28;20207;-74
2023/06/06 00:59:15;;;;;;;6.97;2.13;;;18.40;99.90;;;;;;5016523;28;20213;-74
2023/06/06 01:01:42;;;;;;;3.03;2.10;;;18.30;99.90;;;;;;5015464;28;20208;-72
2023/06/06 01:04:10;;;;;;;4.30;2.10;;;18.30;99.90;;;;;;5014205;28;20208;-74
2023/06/06 01:06:37;;;;;;;2.38;2.00;;;18.20;99.90;;;;;;5020922;28;20219;-74
2023/06/06 01:09:05;;;;;;;3.25;2.10;;;18.20;99.90;;;;;;5001708;28;20567;-74
2023/06/06 01:11:57;;;;;;;1.95;1.75;;;18.20;99.90;;;;;;5023531;28;20172;-73
2023/06/06 01:14:41;;;;;;;6.50;2.92;;;18.20;99.90;;;;;;5000831;28;20200;-74
2023/06/06 01:17:09;;;;;;;4.60;2.42;;;18.30;99.90;;;;;;5002190;28;20204;-73
2023/06/06 01:19:37;;;;;;;3.28;2.13;;;18.30;99.90;;;;;;5001383;28;20687;-74
2023/06/06 01:22:04;;;;;;;5.30;2.40;;;18.30;99.90;;;;;;5001895;28;20280;-72
2023/06/06 01:24:30;;;;;;;5.47;2.25;;;18.30;99.90;;;;;;4995746;28;20633;-73
2023/06/06 01:26:56;;;;;;;4.75;1.80;;;18.20;99.90;;;;;;4994551;28;20178;-74
2023/06/06 01:29:22;;;;;;;2.83;2.10;;;18.30;99.90;;;;;;4996530;28;20285;-73
2023/06/06 01:32:00;;;;;;;5.18;2.08;;;18.20;99.90;;;;;;4997336;28;20201;-72
2023/06/06 01:34:45;;;;;;;5.22;1.95;;;18.30;99.90;;;;;;4996860;28;20283;-74
2023/06/06 01:37:19;;;;;;;4.70;1.98;;;18.20;99.90;;;;;;4993847;28;20291;-74
2023/06/06 01:39:48;;;;;;;5.20;2.03;;;18.10;99.90;;;;;;4997626;28;20219;-72
2023/06/06 01:42:15;;;;;;;3.22;2.08;;;18.30;99.90;;;;;;4998853;28;20203;-74
2023/06/06 01:44:42;;;;;;;5.90;2.40;;;18.30;99.90;;;;;;5000049;28;20208;-73
2023/06/06 01:47:09;;;;;;;6.55;2.35;;;18.30;99.90;;;;;;4999124;28;20198;-74
2023/06/06 01:49:36;;;;;;;3.85;2.00;;;18.40;99.90;;;;;;5001347;28;20220;-74
2023/06/06 01:52:02;;;;;;;7.60;2.40;;;18.40;99.90;;;;;;5001190;28;20209;-74
2023/06/06 01:54:28;;;;;;;5.05;2.15;;;18.40;99.90;;;;;;5003156;28;20571;-74
2023/06/06 01:56:54;;;;;;;3.05;2.28;;;18.20;99.90;;;;;;5001667;28;20703;-74
2023/06/06 01:59:20;;;;;;;3.00;2.22;;;18.20;99.90;;;;;;5007189;28;20189;-73
2023/06/06 02:01:46;;;;;;;3.70;2.20;;;18.00;99.90;;;;;;5009243;28;20227;-73
2023/06/06 02:04:11;;;;;;;3.30;1.92;;;18.00;99.90;;;;;;4990634;28;20205;-73
2023/06/06 02:06:38;;;;;;;4.97;2.42;;;18.00;99.90;;;;;;4996815;28;20577;-73
2023/06/06 02:09:03;;;;;;;4.03;2.28;;;18.00;99.90;;;;;;4992477;28;20209;-73
2023/06/06 02:11:29;;;;;;;3.05;2.00;;;18.00;99.90;;;;;;4998687;28;20179;-74
2023/06/06 02:13:57;;;;;;;3.30;2.28;;;17.90;99.90;;;;;;4995484;28;20228;-74
2023/06/06 02:16:23;;;;;;;5.00;2.33;;;17.90;99.90;;;;;;4997315;28;20209;-74
2023/06/06 02:18:49;;;;;;;3.17;2.00;;;17.80;99.90;;;;;;4997359;28;20248;-74
2023/06/06 02:21:15;;;;;;;3.63;2.13;;;17.80;99.90;;;;;;5000329;28;20208;-73
2023/06/06 02:23:41;;;;;;;3.47;2.30;;;17.80;99.90;;;;;;5000183;28;20186;-73
2023/06/06 02:26:06;;;;;;;3.70;2.53;;;17.80;99.90;;;;;;4997804;28;20229;-74
2023/06/06 02:28:32;;;;;;;3.38;1.98;;;17.70;99.90;;;;;;5001084;28;20288;-74
2023/06/06 02:30:58;;;;;;;3.78;2.20;;;17.70;99.90;;;;;;4998482;28;20221;-73
2023/06/06 02:33:23;;;;;;;5.72;2.30;;;17.80;99.90;;;;;;5001836;28;20296;-74
2023/06/06 02:35:52;;;;;;;3.20;2.15;;;17.70;99.90;;;;;;4998660;28;20166;-73
2023/06/06 02:38:18;;;;;;;3.00;2.15;;;17.70;99.90;;;;;;5004205;28;20267;-74
2023/06/06 02:40:43;;;;;;;6.22;2.50;;;17.60;99.90;;;;;;4994456;28;20217;-70
2023/06/06 02:43:09;;;;;;;2.85;1.80;;;17.70;99.90;;;;;;4977063;28;20210;-73
2023/06/06 02:45:35;;;;;;;3.22;2.47;;;17.70;99.90;;;;;;4995325;28;20216;-73
2023/06/06 02:48:00;;;;;;;5.47;2.13;;;17.70;99.90;;;;;;4990679;28;20226;-73
2023/06/06 02:50:28;;;;;;;3.70;2.50;;;17.70;99.90;;;;;;4996698;28;20166;-74
2023/06/06 02:52:55;;;;;;;4.22;2.38;;;17.70;99.90;;;;;;4995648;28;20615;-74
2023/06/06 02:55:20;;;;;;;4.20;2.83;;;17.70;99.90;;;;;;4996003;28;20203;-73
2023/06/06 02:57:46;;;;;;;6.22;2.72;;;17.80;99.90;;;;;;4997687;28;20243;-73
2023/06/06 03:00:12;;;;;;;5.22;2.83;;;17.80;99.90;;;;;;4996160;28;20297;-74
2023/06/06 03:02:38;;;;;;;2.75;2.05;;;17.70;99.90;;;;;;4999693;28;20174;-73
2023/06/06 03:05:04;;;;;;;4.30;2.45;;;17.70;99.90;;;;;;4995893;28;20595;-73
2023/06/06 03:07:30;;;;;;;3.67;2.50;;;17.70;99.90;;;;;;5001167;28;20303;-73
2023/06/06 03:09:56;;;;;;;3.58;2.35;;;17.80;99.90;;;;;;4996570;28;20711;-73
2023/06/06 03:12:21;;;;;;;4.60;2.47;;;17.70;99.90;;;;;;4996740;28;20221;-73
2023/06/06 03:14:47;;;;;;;7.03;2.65;;;17.80;99.90;;;;;;5002617;28;20174;-73
2023/06/06 03:17:13;;;;;;;5.57;2.80;;;17.90;99.90;;;;;;5002926;28;20280;-73
2023/06/06 03:19:38;;;;;;;3.78;2.63;;;18.00;99.90;;;;;;4992064;28;20328;-73
2023/06/06 03:22:05;;;;;;;4.25;2.35;;;18.00;99.90;;;;;;4991605;28;20219;-73
2023/06/06 03:24:33;;;;;;;6.93;3.13;;;17.90;99.90;;;;;;4993737;28;20210;-73
2023/06/06 03:27:00;;;;;;;5.47;2.80;;;18.10;99.90;;;;;;4992040;28;20189;-74
2023/06/06 03:29:25;;;;;;;5.40;3.15;;;18.10;99.90;;;;;;4994497;28;20221;-74
2023/06/06 03:31:51;;;;;;;2.92;2.63;;;18.00;99.90;;;;;;4996236;28;20284;-73
2023/06/06 03:34:16;;;;;;;3.88;2.40;;;18.10;99.90;;;;;;4994193;28;20265;-72
2023/06/06 03:36:42;;;;;;;4.53;2.97;;;18.30;99.90;;;;;;4998187;28;20213;-74
2023/06/06 03:39:08;;;;;;;4.75;2.38;;;18.50;99.90;;;;;;4993329;28;20248;-73
2023/06/06 03:41:33;;;;;;;4.05;2.03;;;18.60;99.90;;;;;;5000419;28;20199;-73
2023/06/06 03:44:00;;;;;;;4.78;2.10;;;18.70;99.90;;;;;;4989572;28;20212;-73
2023/06/06 03:46:25;;;;;;;2.90;2.45;;;18.90;99.90;;;;;;4994586;28;20220;-73
2023/06/06 03:48:51;;;;;;;3.80;2.35;;;19.10;99.90;;;;;;4997725;28;20222;-72
2023/06/06 03:51:17;;;;;;;4.88;2.45;;;19.50;99.90;;;;;;5001457;28;20219;-72
2023/06/06 03:53:42;;;;;;;4.88;2.22;;;19.70;99.90;;;;;;5000304;28;20268;-73
2023/06/06 03:56:08;;;;;;;6.57;2.70;;;20.20;99.90;;;;;;5000801;28;20213;-73
2023/06/06 03:58:34;;;;;;;4.60;2.90;;;21.20;99.90;;;;;;4990899;28;20493;-74
2023/06/06 04:01:01;;;;;;;3.88;3.03;;;22.10;99.90;;;;;;4992799;28;20205;-73
2023/06/06 04:03:27;;;;;;;3.60;2.35;;;23.20;99.90;;;;;;4992251;28;20238;-73
2023/06/06 04:05:53;;;;;;;5.50;3.00;;;24.10;99.90;;;;;;4994513;28;20637;-74
2023/06/06 04:08:19;;;;;;;4.10;2.10;;;24.80;99.90;;;;;;4992274;28;20202;-71
2023/06/06 04:10:45;;;;;;;4.28;2.63;;;25.40;99.80;;;;;;4997300;28;20220;-72
2023/06/06 04:13:11;;;;;;;5.55;2.63;;;26.10;97.80;;;;;;4993678;28;20210;-72
2023/06/06 04:15:36;;;;;;;5.30;2.50;;;26.90;95.80;;;;;;4998124;28;20266;-72
2023/06/06 04:18:03;;;;;;;5.40;2.40;;;27.30;94.70;;;;;;4977964;28;20600;-72
2023/06/06 04:20:31;;;;;;;4.70;2.40;;;27.50;93.60;;;;;;4994017;28;20173;-72
2023/06/06 04:23:00;;;;;;;7.43;3.08;;;28.00;92.50;;;;;;4995394;28;20201;-72
2023/06/06 04:25:25;;;;;;;4.95;3.05;;;28.50;90.30;;;;;;4998185;28;20237;-73
2023/06/06 04:27:51;;;;;;;4.53;3.33;;;28.10;88.70;;;;;;4997707;28;20236;-72
2023/06/06 04:30:22;;;;;;;5.72;2.60;;;27.80;88.30;;;;;;5000455;28;20217;-73
2023/06/06 04:32:52;;;;;;;3.95;2.85;;;28.40;88.20;;;;;;4999138;28;20181;-72
2023/06/06 04:35:18;;;;;;;5.55;2.50;;;28.90;85.60;;;;;;4994713;28;20198;-72
2023/06/06 04:37:47;;;;;;;5.85;2.70;;;29.40;84.00;;;;;;4993689;28;21110;-73
2023/06/06 04:40:14;;;;;;;4.55;2.80;;;29.60;82.90;;;;;;4987876;28;20214;-73
2023/06/06 04:42:40;;;;;;;4.32;2.70;;;30.60;80.90;;;;;;4997432;28;20211;-73
2023/06/06 04:45:06;;;;;;;4.43;2.40;;;30.20;78.90;;;;;;4989681;28;20223;-73
2023/06/06 04:47:34;;;;;;;8.77;2.80;;;30.50;78.50;;;;;;4994812;28;20202;-72
2023/06/06 04:49:59;;;;;;;6.00;2.78;;;30.80;77.00;;;;;;4994051;28;20231;-73
2023/06/06 04:52:25;;;;;;;5.50;3.00;;;30.90;75.80;;;;;;4994655;28;20214;-73
2023/06/06 04:54:51;;;;;;;5.20;2.65;;;31.50;75.50;;;;;;4995751;28;20802;-73
2023/06/06 04:57:19;;;;;;;5.30;2.85;;;31.80;73.70;;;;;;4992001;28;20201;-73
2023/06/06 04:59:52;;;;;;;5.43;2.75;;;32.60;71.80;;;;;;5001761;28;20199;-73
2023/06/06 05:02:22;;;;;;;4.55;2.50;;;32.10;71.10;;;;;;4999750;28;20209;-73
2023/06/06 05:04:54;;;;;;;4.10;3.00;;;32.30;70.20;;;;;;4999149;28;20211;-73
2023/06/06 05:07:24;;;;;;;5.13;2.50;;;32.50;68.70;;;;;;4999664;28;20208;-73
2023/06/06 05:09:53;;;;;;;3.78;2.75;;;32.50;68.70;;;;;;4999575;28;20699;-73
2023/06/06 05:12:23;;;;;;;5.82;2.67;;;32.80;68.70;;;;;;5001668;28;20253;-74
2023/06/06 05:14:49;;;;;;;7.53;2.58;;;33.50;66.90;;;;;;4998668;28;20609;-74
2023/06/06 05:17:17;;;;;;;5.45;2.65;;;33.20;65.80;;;;;;4999088;28;20880;-74
2023/06/06 05:19:46;;;;;;;3.88;2.42;;;32.80;66.10;;;;;;5000226;28;20217;-75
2023/06/06 05:22:15;;;;;;;5.57;2.88;;;33.00;66.00;;;;;;4998863;28;20307;-73
2023/06/06 05:24:42;;;;;;;4.75;3.00;;;33.10;65.60;;;;;;5000983;28;20691;-74
2023/06/06 05:27:08;;;;;;;4.25;2.55;;;33.20;65.50;;;;;;4998882;28;20259;-73
2023/06/06 05:29:34;;;;;;;3.33;2.60;;;33.60;64.50;;;;;;5001431;28;20216;-74
2023/06/06 05:32:00;;;;;;;4.18;2.97;;;33.90;63.80;;;;;;4998193;28;20208;-73
2023/06/06 05:34:25;;;;;;;5.78;3.17;;;33.80;63.80;;;;;;4999895;28;20200;-73
2023/06/06 05:36:51;;;;;;;5.40;3.00;;;34.10;62.20;;;;;;5000290;28;20193;-73
2023/06/06 05:39:17;;;;;;;7.97;3.03;;;33.80;61.50;;;;;;4995595;28;20220;-73
2023/06/06 05:41:43;;;;;;;5.55;4.15;;;33.80;61.90;;;;;;4999973;28;20222;-73
2023/06/06 05:44:09;;;;;;;6.45;3.15;;;33.60;61.70;;;;;;4998948;28;20593;-73
2023/06/06 05:46:35;;;;;;;8.07;3.45;;;34.10;61.90;;;;;;5001024;28;20578;-73
2023/06/06 05:49:00;;;;;;;6.15;3.58;;;33.40;59.70;;;;;;4997919;28;20217;-73
2023/06/06 05:51:26;;;;;;;8.23;3.00;;;33.00;60.80;;;;;;5002676;28;20274;-73
2023/06/06 05:53:51;;;;;;;7.90;2.70;;;33.60;61.30;;;;;;4998025;28;20173;-73
2023/06/06 05:56:17;;;;;;;6.72;3.20;;;34.30;60.90;;;;;;5000593;28;21886;-73
2023/06/06 05:58:52;;;;;;;4.70;3.38;;;33.80;59.80;;;;;;5002972;28;20270;-73
2023/06/06 06:01:19;;;;;;;4.80;2.90;;;32.70;61.10;;;;;;4999885;28;20200;-73
2023/06/06 06:03:48;;;;;;;4.97;2.58;;;32.30;61.50;;;;;;5005713;28;20204;-73
2023/06/06 06:06:14;;;;;;;4.57;2.80;;;32.80;61.70;;;;;;5000747;28;20204;-74
2023/06/06 06:08:39;;;;;;;4.82;3.17;;;33.60;60.50;;;;;;5005716;28;20207;-73
2023/06/06 06:11:07;;;;;;;4.05;2.58;;;34.10;59.70;;;;;;5002030;28;20686;-73
2023/06/06 06:13:33;;;;;;;5.70;2.45;;;32.80;59.30;;;;;;5004051;28;20196;-73
2023/06/06 06:15:59;;;;;;;4.28;2.67;;;31.90;60.50;;;;;;5001843;28;20276;-73
2023/06/06 06:18:24;;;;;;;5.45;3.22;;;32.40;61.50;;;;;;5002169;28;20252;-73
2023/06/06 06:20:50;;;;;;;6.68;2.47;;;32.30;61.80;;;;;;5003561;28;20172;-73
2023/06/06 06:23:16;;;;;;;5.40;3.50;;;32.60;61.20;;;;;;5000944;28;20208;-72
2023/06/06 06:25:43;;;;;;;6.15;3.70;;;32.70;60.90;;;;;;5003174;28;20196;-73
2023/06/06 06:28:21;;;;;;;9.23;2.72;;;32.30;60.50;;;;;;4997071;28;20699;-74
2023/06/06 06:30:47;;;;;;;4.38;2.55;;;33.50;61.20;;;;;;4997128;28;20217;-74
2023/06/06 06:33:14;;;;;;;4.22;2.88;;;33.60;59.20;;;;;;5002480;28;20216;-73
2023/06/06 06:35:41;;;;;;;6.47;2.92;;;32.40;59.70;;;;;;5000030;28;20173;-73
2023/06/06 06:38:07;;;;;;;5.15;2.85;;;31.90;61.20;;;;;;5001188;28;20208;-72
2023/06/06 06:40:33;;;;;;;3.85;2.38;;;32.40;61.40;;;;;;4997490;28;20216;-73
2023/06/06 06:42:58;;;;;;;3.38;2.72;;;31.90;60.80;;;;;;5001320;28;20209;-73
2023/06/06 06:45:24;;;;;;;4.25;2.78;;;32.30;60.60;;;;;;5000564;28;20268;-73
2023/06/06 06:47:50;;;;;;;5.85;3.03;;;32.70;60.80;;;;;;5003650;28;20205;-73
2023/06/06 06:50:16;;;;;;;9.32;3.28;;;32.50;60.50;;;;;;5000906;28;20721;-73
2023/06/06 06:52:41;;;;;;;5.65;3.10;;;32.50;59.90;;;;;;5003316;28;20208;-73
2023/06/06 06:55:09;;;;;;;8.75;2.75;;;32.60;59.80;;;;;;4995012;28;20235;-73
2023/06/06 06:57:36;;;;;;;7.05;3.28;;;33.00;59.30;;;;;;5003850;28;20287;-73
2023/06/06 07:00:12;;;;;;;8.82;4.50;;;33.10;58.40;;;;;;4996336;28;20197;-72
2023/06/06 07:02:39;;;;;;;4.72;2.92;;;31.60;60.30;;;;;;4998888;28;20275;-73
2023/06/06 07:05:06;;;;;;;6.00;2.80;;;30.40;62.90;;;;;;5001032;28;20738;-72
2023/06/06 07:07:31;;;;;;;7.10;3.17;;;29.00;64.10;;;;;;5000246;28;20704;-72
2023/06/06 07:09:57;;;;;;;10.27;3.45;;;27.30;67.80;;;;;;4992877;28;20204;-73
2023/06/06 07:12:23;;;;;;;6.78;3.00;;;27.00;69.70;;;;;;4984644;28;20208;-73
2023/06/06 07:14:48;;;;;;;8.73;2.80;;;26.50;70.80;;;;;;4986313;28;20177;-73
2023/06/06 07:17:17;;;;;;;5.88;3.72;;;26.00;71.80;;;;;;4985885;28;20324;-73
2023/06/06 07:19:43;;;;;;;6.90;3.30;;;26.10;72.90;;;;;;4986586;28;20205;-72
2023/06/06 07:22:10;;;;;;;8.98;2.83;;;25.80;73.40;;;;;;4994409;28;20202;-72
2023/06/06 07:24:35;;;;;;;6.00;3.03;;;26.10;73.60;;;;;;4997908;28;20558;-72
2023/06/06 07:27:02;;;;;;;5.45;3.20;;;25.70;74.10;;;;;;4997097;28;20279;-72
2023/06/06 07:29:30;;;;;;;5.78;2.55;;;25.00;75.20;;;;;;5000197;28;20300;-72
2023/06/06 07:31:55;;;;;;;9.93;3.10;;;24.90;76.50;;;;;;4994262;28;20209;-72
2023/06/06 07:34:22;;;;;;;8.07;3.08;;;25.00;76.90;;;;;;4992579;28;20209;-69
2023/06/06 07:36:48;;;;;;;7.13;3.17;;;24.90;77.60;;;;;;4992353;28;20210;-69
2023/06/06 07:39:14;;;;;;;6.50;3.10;;;25.30;78.20;;;;;;4987572;28;20276;-70
2023/06/06 07:41:40;;;;;;;12.18;3.28;;;25.40;77.30;;;;;;4995097;28;20184;-69
2023/06/06 07:44:05;;;;;;;6.28;2.55;;;25.60;77.70;;;;;;4994684;28;20300;-68
2023/06/06 07:46:31;;;;;;;5.50;2.50;;;26.20;76.70;;;;;;4997397;28;20254;-69
2023/06/06 07:48:58;;;;;;;5.93;2.83;;;26.80;75.60;;;;;;4993885;28;20240;-69
2023/06/06 07:51:25;;;;;;;6.05;3.40;;;27.10;75.40;;;;;;4991030;28;21653;-69
2023/06/06 07:53:51;;;;;;;5.20;2.88;;;27.20;74.30;;;;;;4993727;28;20678;-69
2023/06/06 07:56:18;;;;;;;9.77;3.08;;;27.30;74.40;;;;;;4993093;28;20210;-69
2023/06/06 07:58:53;;;;;;;9.98;4.55;;;27.00;75.00;;;;;;4996727;28;20213;-69
2023/06/06 08:01:23;;;;;;;7.85;3.50;;;27.00;74.70;;;;;;4994447;28;20267;-68
2023/06/06 08:03:49;;;;;;;5.75;3.63;;;26.90;74.80;;;;;;4993207;28;20220;-69
2023/06/06 08:06:18;;;;;;;4.97;2.95;;;27.20;75.20;;;;;;4996869;28;20200;-69
2023/06/06 08:08:46;;;;;;;10.95;3.00;;;27.70;74.00;;;;;;4999876;28;20675;-69
2023/06/06 08:11:12;;;;;;;6.38;2.65;;;27.80;74.90;;;;;;4992186;28;20436;-69
2023/06/06 08:13:38;;;;;;;6.90;2.97;;;27.90;74.40;;;;;;4991492;28;20201;-70
2023/06/06 08:16:04;;;;;;;5.00;3.20;;;27.80;73.30;;;;;;4992322;28;20754;-69
2023/06/06 08:18:29;;;;;;;7.50;2.80;;;27.80;73.10;;;;;;4992756;28;20240;-69
2023/06/06 08:20:55;;;;;;;6.45;3.35;;;27.60;73.80;;;;;;4994206;28;20177;-70
2023/06/06 08:23:23;;;;;;;6.47;3.17;;;27.20;74.60;;;;;;4994783;28;20178;-70
2023/06/06 08:25:48;;;;;;;7.28;3.00;;;27.00;75.10;;;;;;4997285;28;20276;-71
2023/06/06 08:28:15;;;;;;;9.32;3.70;;;27.10;75.20;;;;;;4994608;28;20300;-71
2023/06/06 08:30:41;;;;;;;10.23;3.28;;;26.80;75.30;;;;;;4998839;28;20209;-71
2023/06/06 08:33:06;;;;;;;5.40;3.00;;;27.00;75.60;;;;;;5000268;28;20192;-70
2023/06/06 08:35:32;;;;;;;10.13;3.30;;;27.30;75.40;;;;;;4996056;28;20181;-70
2023/06/06 08:37:57;;;;;;;7.85;4.00;;;27.30;75.10;;;;;;5002666;28;20212;-71
2023/06/06 08:40:23;;;;;;;8.07;3.15;;;27.20;75.40;;;;;;4998880;28;20213;-70
2023/06/06 08:42:51;;;;;;;10.20;3.10;;;27.50;75.00;;;;;;4997597;28;20600;-70
2023/06/06 08:45:20;;;;;;;22.63;11.30;;;27.10;75.20;;;;;;4999308;28;20316;-70
2023/06/06 08:47:47;;;;;;;7.70;3.50;;;27.50;75.90;;;;;;4999351;28;20220;-70
2023/06/06 08:50:13;;;;;;;21.38;10.88;;;27.40;74.70;;;;;;4999051;28;20197;-70
2023/06/06 08:52:40;;;;;;;12.82;4.07;;;27.30;75.80;;;;;;5002168;28;20219;-70
2023/06/06 08:55:07;;;;;;;5.32;3.25;;;27.20;75.70;;;;;;4998796;28;20205;-71
2023/06/06 08:57:34;;;;;;;9.70;5.65;;;26.70;76.10;;;;;;5001782;28;20204;-71
2023/06/06 09:00:11;;;;;;;15.20;5.70;;;26.50;78.00;;;;;;4999226;28;20169;-70
2023/06/06 09:02:40;;;;;;;8.48;3.17;;;26.80;78.90;;;;;;5001339;28;20211;-71
2023/06/06 09:05:07;;;;;;;7.85;3.80;;;27.00;77.20;;;;;;4994485;28;20210;-71
2023/06/06 09:07:33;;;;;;;7.05;3.60;;;27.30;79.70;;;;;;4994837;28;20201;-71
2023/06/06 09:09:59;;;;;;;5.88;3.65;;;27.30;77.70;;;;;;5002005;28;20193;-71
2023/06/06 09:12:25;;;;;;;13.35;3.70;;;26.80;78.50;;;;;;4999048;28;20210;-69
2023/06/06 09:14:51;;;;;;;7.93;3.58;;;26.80;78.30;;;;;;4999772;28;20195;-70
2023/06/06 09:17:17;;;;;;;10.05;3.67;;;26.90;79.00;;;;;;4999613;28;20216;-69
2023/06/06 09:19:46;;;;;;;10.85;3.53;;;27.00;78.20;;;;;;4999426;28;20233;-71
2023/06/06 09:22:12;;;;;;;7.60;3.53;;;26.70;77.70;;;;;;4998316;28;20684;-72
2023/06/06 09:24:46;;;;;;;5.65;3.72;;;26.80;77.70;;;;;;4998217;28;20212;-69
2023/06/06 09:27:28;;;;;;;12.10;3.60;;;26.90;78.60;;;;;;5003034;28;20241;-69
2023/06/06 09:29:54;;;;;;;7.28;4.60;;;27.10;78.40;;;;;;5001033;28;20176;-70
2023/06/06 09:32:30;;;;;;;10.02;4.03;;;26.90;77.60;;;;;;5002482;28;20607;-70
2023/06/06 09:35:03;;;;;;;10.05;4.40;;;26.50;78.90;;;;;;5003302;28;20227;-70
2023/06/06 09:37:29;;;;;;;7.20;3.80;;;26.60;79.00;;;;;;5003760;28;20569;-70
2023/06/06 09:40:15;;;;;;;7.43;4.30;;;27.00;78.90;;;;;;5003075;28;20203;-69
2023/06/06 09:42:45;;;;;;;9.02;5.22;;;26.50;77.10;;;;;;5002573;28;20197;-70
2023/06/06 09:45:15;;;;;;;7.05;3.88;;;26.10;79.20;;;;;;4998286;28;20280;-69
2023/06/06 09:47:42;;;;;;;6.82;3.40;;;26.20;78.90;;;;;;5002782;28;20208;-70
2023/06/06 09:50:10;;;;;;;8.65;3.45;;;26.20;79.50;;;;;;5005141;28;20300;-69
2023/06/06 09:52:36;;;;;;;4.85;3.55;;;26.30;79.70;;;;;;5000760;28;20205;-70
2023/06/06 09:55:06;;;;;;;5.68;3.65;;;26.30;79.80;;;;;;5005399;28;20723;-73
2023/06/06 09:57:35;;;;;;;8.35;3.60;;;26.40;80.20;;;;;;4998349;28;20217;-69
2023/06/06 10:00:15;;;;;;;5.65;3.72;;;26.50;79.10;;;;;;5006732;28;20169;-70
2023/06/06 10:02:47;;;;;;;5.82;3.60;;;26.30;79.80;;;;;;5003997;28;20237;-69
2023/06/06 10:05:15;;;;;;;5.50;3.70;;;26.20;80.50;;;;;;5000679;28;20251;-68
2023/06/06 10:07:44;;;;;;;5.13;2.83;;;26.30;80.00;;;;;;5003633;28;20205;-69
2023/06/06 10:10:15;;;;;;;8.30;3.33;;;26.10;80.60;;;;;;5001374;28;20193;-71
2023/06/06 10:12:43;;;;;;;10.55;4.60;;;26.10;81.40;;;;;;5004106;28;20280;-69
2023/06/06 10:15:10;;;;;;;5.95;3.00;;;26.40;80.90;;;;;;5001512;28;20173;-69
2023/06/06 10:17:37;;;;;;;14.13;4.07;;;26.40;81.30;;;;;;5004512;28;20188;-70
2023/06/06 10:20:09;;;;;;;6.68;3.50;;;26.10;81.90;;;;;;5001364;28;20197;-69
2023/06/06 10:22:36;;;;;;;5.32;3.90;;;26.40;82.70;;;;;;5001532;28;20210;-69
2023/06/06 10:25:04;;;;;;;4.60;3.45;;;25.70;83.60;;;;;;5002046;28;20197;-69
2023/06/06 10:27:54;;;;;;;3.47;3.17;;;25.70;84.40;;;;;;4997628;28;20672;-69
2023/06/06 10:30:29;;;;;;;5.63;3.58;;;25.70;84.50;;;;;;4998798;28;20212;-69
2023/06/06 10:33:25;;;;;;;5.80;3.40;;;25.80;85.00;;;;;;5003756;28;20730;-69
2023/06/06 10:36:15;;;;;;;7.97;3.38;;;25.60;85.40;;;;;;5001311;28;20180;-69
2023/06/06 10:38:43;;;;;;;7.75;3.58;;;25.70;85.70;;;;;;5000817;28;20572;-70
2023/06/06 10:41:18;;;;;;;6.45;3.53;;;26.10;84.90;;;;;;5004175;28;20208;-70
2023/06/06 10:43:44;;;;;;;4.18;3.38;;;26.40;84.00;;;;;;5007406;28;20642;-71
2023/06/06 10:46:11;;;;;;;3.75;2.97;;;26.50;84.60;;;;;;5001649;28;20288;-70
2023/06/06 10:48:38;;;;;;;7.82;3.75;;;26.80;83.60;;;;;;5001118;28;20222;-70
2023/06/06 10:51:04;;;;;;;3.53;3.08;;;27.00;83.20;;;;;;5003199;28;20173;-69
2023/06/06 10:53:31;;;;;;;4.50;3.00;;;27.10;81.90;;;;;;5002700;28;20197;-70
2023/06/06 10:55:56;;;;;;;5.93;3.60;;;27.40;81.70;;;;;;5003168;28;20209;-70
2023/06/06 10:58:32;;;;;;;5.95;3.53;;;27.90;81.30;;;;;;5002086;28;20205;-70
2023/06/06 11:01:06;;;;;;;3.70;3.22;;;28.10;80.30;;;;;;5000219;28;20193;-69
2023/06/06 11:03:35;;;;;;;6.60;3.15;;;27.30;80.70;;;;;;5001508;28;20620;-70
2023/06/06 11:06:00;;;;;;;4.55;3.20;;;27.20;81.00;;;;;;5003496;28;20200;-70
2023/06/06 11:08:32;;;;;;;4.00;3.58;;;26.90;81.90;;;;;;5001848;28;20228;-69
2023/06/06 11:11:23;;;;;;;5.55;3.50;;;26.50;82.40;;;;;;5003247;28;20256;-70
2023/06/06 11:13:51;;;;;;;4.80;3.40;;;26.70;82.40;;;;;;4993140;28;20279;-69
2023/06/06 11:16:28;;;;;;;7.22;3.40;;;27.20;81.90;;;;;;5020705;28;20208;-69
2023/06/06 11:19:01;;;;;;;3.78;3.25;;;27.40;80.90;;;;;;5005358;28;20231;-71
2023/06/06 11:21:27;;;;;;;8.32;3.60;;;27.40;81.00;;;;;;5017985;28;20240;-70
2023/06/06 11:23:54;;;;;;;6.43;3.83;;;27.10;80.90;;;;;;5023253;28;20196;-70
2023/06/06 11:26:20;;;;;;;9.05;5.07;;;26.90;81.10;;;;;;5020059;28;20177;-70
2023/06/06 11:28:46;;;;;;;6.55;4.10;;;26.70;80.70;;;;;;5021762;28;20896;-71
2023/06/06 11:31:16;;;;;;;5.63;4.30;;;26.50;82.30;;;;;;5020891;28;20211;-69
2023/06/06 11:33:43;;;;;;;4.40;3.80;;;26.40;82.20;;;;;;5004395;28;20719;-69
2023/06/06 11:36:09;;;;;;;5.25;4.03;;;26.40;82.50;;;;;;5020267;28;20165;-70
2023/06/06 11:38:34;;;;;;;4.72;3.63;;;26.30;82.60;;;;;;5019872;28;20280;-69
2023/06/06 11:41:03;;;;;;;4.70;3.78;;;26.50;82.40;;;;;;5021852;28;20205;-70
2023/06/06 11:43:29;;;;;;;5.32;3.35;;;26.60;82.20;;;;;;5020851;28;20204;-71
2023/06/06 11:46:07;;;;;;;6.40;4.68;;;26.40;82.50;;;;;;5020250;28;20236;-70
2023/06/06 11:48:36;;;;;;;8.45;3.47;;;26.40;83.10;;;;;;5019389;28;20232;-69
2023/06/06 11:51:14;;;;;;;6.82;4.00;;;26.40;82.90;;;;;;5022152;28;20176;-69
2023/06/06 11:53:40;;;;;;;6.63;3.20;;;26.10;83.90;;;;;;5019570;28;20677;-69
2023/06/06 11:56:13;;;;;;;5.32;3.33;;;26.10;82.40;;;;;;5019351;28;20205;-70
2023/06/06 11:58:40;;;;;;;4.18;3.00;;;25.70;81.90;;;;;;5000921;28;20604;-70
2023/06/06 12:01:09;;;;;;;5.47;3.25;;;26.00;82.30;;;;;;5022165;28;20599;-71
2023/06/06 12:03:37;;;;;;;4.97;3.55;;;26.20;81.90;;;;;;5019439;28;20217;-71
2023/06/06 12:06:04;;;;;;;6.03;3.70;;;25.80;81.30;;;;;;5004713;28;20544;-71
2023/06/06 12:08:38;;;;;;;6.85;3.28;;;25.90;82.90;;;;;;5021945;28;20200;-70
2023/06/06 12:11:23;;;;;;;5.45;3.58;;;25.60;83.40;;;;;;5021496;28;20703;-70
2023/06/06 12:13:49;;;;;;;4.63;3.58;;;25.90;83.50;;;;;;5018073;28;20196;-70
2023/06/06 12:16:26;;;;;;;4.30;2.67;;;26.30;83.70;;;;;;5018842;28;20205;-69
2023/06/06 12:18:54;;;;;;;7.20;3.70;;;26.00;83.10;;;;;;5016469;28;20205;-69
2023/06/06 12:21:20;;;;;;;7.70;3.75;;;26.10;83.80;;;;;;5022048;28;20686;-69
2023/06/06 12:23:47;;;;;;;4.40;3.47;;;26.40;83.10;;;;;;5015889;28;20172;-69
2023/06/06 12:26:15;;;;;;;5.82;4.35;;;26.40;82.50;;;;;;5021665;28;20286;-70
2023/06/06 12:28:58;;;;;;;6.95;4.25;;;26.60;82.70;;;;;;4996978;28;20220;-70
2023/06/06 12:31:25;;;;;;;7.30;3.42;;;26.50;82.00;;;;;;5018285;28;20603;-69
2023/06/06 12:33:57;;;;;;;4.55;3.38;;;26.70;81.80;;;;;;5002423;28;20201;-70
2023/06/06 12:36:25;;;;;;;6.32;3.63;;;26.90;81.70;;;;;;4999418;28;20232;-70
2023/06/06 12:38:59;;;;;;;7.05;3.33;;;27.10;81.80;;;;;;5003608;28;20751;-71
2023/06/06 12:41:41;;;;;;;8.98;3.55;;;27.00;81.10;;;;;;5019668;28;20213;-71
2023/06/06 12:44:16;;;;;;;8.68;3.17;;;27.10;81.60;;;;;;5018387;28;20682;-68
2023/06/06 12:46:43;;;;;;;6.55;3.60;;;26.80;81.90;;;;;;5019584;28;20224;-71
2023/06/06 12:49:09;;;;;;;5.80;3.60;;;26.80;82.40;;;;;;5020080;28;20690;-71